sensor_id;sensor_type;location;lat;lon;timestamp;temperature;humidity
53978;DHT22;39886;47.984;-1.586;2023-02-12T00:01:17;16.70;55.00
53978;DHT22;39886;47.984;-1.586;2023-02-12T00:03:43;16.70;55.00
53978;DHT22;39886;47.984;-1.586;2023-02-12T00:06:10;16.70;55.00
53978;DHT22;39886;47.984;-1.586;2023-02-12T00:08:37;16.70;55.00
53978;DHT22;39886;47.984;-1.586;2023-02-12T00:11:17;16.70;55.10
53978;DHT22;39886;47.984;-1.586;2023-02-12T00:13:43;16.70;55.10
53978;DHT22;39886;47.984;-1.586;2023-02-12T00:16:10;16.70;55.10
53978;DHT22;39886;47.984;-1.586;2023-02-12T00:18:37;16.70;55.10
53978;DHT22;39886;47.984;-1.586;2023-02-12T00:21:04;16.70;55.10
53978;DHT22;39886;47.984;-1.586;2023-02-12T00:23:30;16.70;55.10
53978;DHT22;39886;47.984;-1.586;2023-02-12T00:25:56;16.70;55.10
53978;DHT22;39886;47.984;-1.586;2023-02-12T00:28:22;16.70;55.10
53978;DHT22;39886;47.984;-1.586;2023-02-12T00:30:48;16.70;55.10
53978;DHT22;39886;47.984;-1.586;2023-02-12T00:33:14;16.60;55.10
53978;DHT22;39886;47.984;-1.586;2023-02-12T00:35:39;16.60;55.10
53978;DHT22;39886;47.984;-1.586;2023-02-12T00:38:05;16.60;55.10
53978;DHT22;39886;47.984;-1.586;2023-02-12T00:40:31;16.60;55.10
53978;DHT22;39886;47.984;-1.586;2023-02-12T00:42:56;16.60;55.10
53978;DHT22;39886;47.984;-1.586;2023-02-12T00:45:22;16.60;55.10
53978;DHT22;39886;47.984;-1.586;2023-02-12T00:47:48;16.60;55.10
53978;DHT22;39886;47.984;-1.586;2023-02-12T00:50:14;16.60;55.20
53978;DHT22;39886;47.984;-1.586;2023-02-12T00:52:39;16.60;55.20
53978;DHT22;39886;47.984;-1.586;2023-02-12T00:55:05;16.60;55.10
53978;DHT22;39886;47.984;-1.586;2023-02-12T00:57:31;16.60;55.20
53978;DHT22;39886;47.984;-1.586;2023-02-12T00:59:58;16.60;55.20
53978;DHT22;39886;47.984;-1.586;2023-02-12T01:02:24;16.60;55.20
53978;DHT22;39886;47.984;-1.586;2023-02-12T01:04:50;16.60;55.20
53978;DHT22;39886;47.984;-1.586;2023-02-12T01:07:16;16.60;55.20
53978;DHT22;39886;47.984;-1.586;2023-02-12T01:09:41;16.60;55.20
53978;DHT22;39886;47.984;-1.586;2023-02-12T01:12:07;16.50;55.10
53978;DHT22;39886;47.984;-1.586;2023-02-12T01:14:33;16.50;55.10
53978;DHT22;39886;47.984;-1.586;2023-02-12T01:16:59;16.50;55.10
53978;DHT22;39886;47.984;-1.586;2023-02-12T01:19:24;16.50;55.80
53978;DHT22;39886;47.984;-1.586;2023-02-12T01:21:50;16.50;55.20
53978;DHT22;39886;47.984;-1.586;2023-02-12T01:24:16;16.50;55.10
53978;DHT22;39886;47.984;-1.586;2023-02-12T01:26:41;16.50;55.10
53978;DHT22;39886;47.984;-1.586;2023-02-12T01:29:07;16.50;55.10
53978;DHT22;39886;47.984;-1.586;2023-02-12T01:31:36;16.50;55.20
53978;DHT22;39886;47.984;-1.586;2023-02-12T01:34:03;16.50;55.80
53978;DHT22;39886;47.984;-1.586;2023-02-12T01:36:30;16.50;55.20
53978;DHT22;39886;47.984;-1.586;2023-02-12T01:38:56;16.50;55.20
53978;DHT22;39886;47.984;-1.586;2023-02-12T01:41:29;16.50;55.20
53978;DHT22;39886;47.984;-1.586;2023-02-12T01:46:42;16.50;55.10
53978;DHT22;39886;47.984;-1.586;2023-02-12T01:49:34;16.50;55.10
53978;DHT22;39886;47.984;-1.586;2023-02-12T01:52:24;16.60;54.90
53978;DHT22;39886;47.984;-1.586;2023-02-12T01:54:51;16.70;54.70
53978;DHT22;39886;47.984;-1.586;2023-02-12T01:57:19;16.80;54.50
53978;DHT22;39886;47.984;-1.586;2023-02-12T01:59:46;16.90;54.30
53978;DHT22;39886;47.984;-1.586;2023-02-12T02:02:15;16.90;54.20
53978;DHT22;39886;47.984;-1.586;2023-02-12T02:04:53;17.00;54.00
53978;DHT22;39886;47.984;-1.586;2023-02-12T02:07:20;17.10;53.90
53978;DHT22;39886;47.984;-1.586;2023-02-12T02:09:46;17.10;53.80
53978;DHT22;39886;47.984;-1.586;2023-02-12T02:12:12;17.20;53.80
53978;DHT22;39886;47.984;-1.586;2023-02-12T02:14:58;17.20;53.60
53978;DHT22;39886;47.984;-1.586;2023-02-12T02:18:08;17.30;53.50
53978;DHT22;39886;47.984;-1.586;2023-02-12T02:21:00;17.40;53.50
53978;DHT22;39886;47.984;-1.586;2023-02-12T02:24:04;17.40;53.40
53978;DHT22;39886;47.984;-1.586;2023-02-12T02:32:56;17.60;53.20
53978;DHT22;39886;47.984;-1.586;2023-02-12T02:35:38;17.60;53.10
53978;DHT22;39886;47.984;-1.586;2023-02-12T02:40:59;17.70;52.90
53978;DHT22;39886;47.984;-1.586;2023-02-12T02:43:39;17.80;52.90
53978;DHT22;39886;47.984;-1.586;2023-02-12T02:46:22;17.80;52.80
53978;DHT22;39886;47.984;-1.586;2023-02-12T02:48:52;17.90;52.80
53978;DHT22;39886;47.984;-1.586;2023-02-12T02:51:26;17.90;52.70
53978;DHT22;39886;47.984;-1.586;2023-02-12T02:56:57;17.80;52.90
53978;DHT22;39886;47.984;-1.586;2023-02-12T02:59:30;17.70;53.20
53978;DHT22;39886;47.984;-1.586;2023-02-12T03:02:19;17.60;53.20
53978;DHT22;39886;47.984;-1.586;2023-02-12T03:04:51;17.60;53.40
53978;DHT22;39886;47.984;-1.586;2023-02-12T03:07:26;17.50;53.50
53978;DHT22;39886;47.984;-1.586;2023-02-12T03:10:04;17.50;53.60
53978;DHT22;39886;47.984;-1.586;2023-02-12T03:12:37;17.50;53.60
53978;DHT22;39886;47.984;-1.586;2023-02-12T03:15:13;17.40;53.70
53978;DHT22;39886;47.984;-1.586;2023-02-12T03:17:47;17.40;53.70
53978;DHT22;39886;47.984;-1.586;2023-02-12T03:20:25;17.30;53.80
53978;DHT22;39886;47.984;-1.586;2023-02-12T03:23:16;17.30;53.80
53978;DHT22;39886;47.984;-1.586;2023-02-12T03:25:53;17.20;53.80
53978;DHT22;39886;47.984;-1.586;2023-02-12T03:28:26;17.20;53.90
53978;DHT22;39886;47.984;-1.586;2023-02-12T03:31:06;17.20;53.90
53978;DHT22;39886;47.984;-1.586;2023-02-12T03:34:09;17.20;53.90
53978;DHT22;39886;47.984;-1.586;2023-02-12T03:39:56;17.10;53.90
53978;DHT22;39886;47.984;-1.586;2023-02-12T03:42:34;17.10;53.90
53978;DHT22;39886;47.984;-1.586;2023-02-12T03:50:32;17.10;54.00
53978;DHT22;39886;47.984;-1.586;2023-02-12T03:53:01;17.00;53.90
53978;DHT22;39886;47.984;-1.586;2023-02-12T03:55:27;17.00;54.00
53978;DHT22;39886;47.984;-1.586;2023-02-12T03:57:59;17.00;54.60
53978;DHT22;39886;47.984;-1.586;2023-02-12T04:00:27;17.00;54.00
53978;DHT22;39886;47.984;-1.586;2023-02-12T04:02:53;17.00;54.00
53978;DHT22;39886;47.984;-1.586;2023-02-12T04:05:24;16.90;54.00
53978;DHT22;39886;47.984;-1.586;2023-02-12T04:07:51;16.90;54.00
53978;DHT22;39886;47.984;-1.586;2023-02-12T04:10:26;16.90;54.00
53978;DHT22;39886;47.984;-1.586;2023-02-12T04:18:26;16.90;54.10
53978;DHT22;39886;47.984;-1.586;2023-02-12T04:26:59;16.80;54.10
53978;DHT22;39886;47.984;-1.586;2023-02-12T04:32:11;16.80;54.20
53978;DHT22;39886;47.984;-1.586;2023-02-12T04:37:25;16.80;54.20
53978;DHT22;39886;47.984;-1.586;2023-02-12T04:39:52;16.70;54.20
53978;DHT22;39886;47.984;-1.586;2023-02-12T04:42:19;16.70;54.20
53978;DHT22;39886;47.984;-1.586;2023-02-12T04:44:45;16.70;54.20
53978;DHT22;39886;47.984;-1.586;2023-02-12T04:47:12;16.70;54.20
53978;DHT22;39886;47.984;-1.586;2023-02-12T04:49:38;16.70;54.20
53978;DHT22;39886;47.984;-1.586;2023-02-12T04:52:04;16.70;54.20
53978;DHT22;39886;47.984;-1.586;2023-02-12T04:54:30;16.70;54.30
53978;DHT22;39886;47.984;-1.586;2023-02-12T04:56:56;16.70;54.20
53978;DHT22;39886;47.984;-1.586;2023-02-12T04:59:22;16.70;54.30
53978;DHT22;39886;47.984;-1.586;2023-02-12T05:01:47;16.60;54.20
53978;DHT22;39886;47.984;-1.586;2023-02-12T05:04:15;16.60;54.20
53978;DHT22;39886;47.984;-1.586;2023-02-12T05:06:42;16.60;54.30
53978;DHT22;39886;47.984;-1.586;2023-02-12T05:09:12;16.60;54.30
53978;DHT22;39886;47.984;-1.586;2023-02-12T05:11:38;16.60;54.30
53978;DHT22;39886;47.984;-1.586;2023-02-12T05:14:04;16.60;54.90
53978;DHT22;39886;47.984;-1.586;2023-02-12T05:16:29;16.60;54.90
53978;DHT22;39886;47.984;-1.586;2023-02-12T05:18:56;16.60;54.30
53978;DHT22;39886;47.984;-1.586;2023-02-12T05:21:22;16.50;54.30
53978;DHT22;39886;47.984;-1.586;2023-02-12T05:23:48;16.50;54.30
53978;DHT22;39886;47.984;-1.586;2023-02-12T05:26:16;16.50;54.30
53978;DHT22;39886;47.984;-1.586;2023-02-12T05:28:42;16.50;54.40
53978;DHT22;39886;47.984;-1.586;2023-02-12T05:31:10;16.50;54.30
53978;DHT22;39886;47.984;-1.586;2023-02-12T05:33:37;16.50;54.40
53978;DHT22;39886;47.984;-1.586;2023-02-12T05:36:08;16.50;54.40
53978;DHT22;39886;47.984;-1.586;2023-02-12T05:38:34;16.50;54.40
53978;DHT22;39886;47.984;-1.586;2023-02-12T05:41:04;16.60;54.30
53978;DHT22;39886;47.984;-1.586;2023-02-12T05:43:30;16.60;54.00
53978;DHT22;39886;47.984;-1.586;2023-02-12T05:46:00;16.70;53.80
53978;DHT22;39886;47.984;-1.586;2023-02-12T05:48:27;16.80;53.60
53978;DHT22;39886;47.984;-1.586;2023-02-12T05:50:53;16.90;53.50
53978;DHT22;39886;47.984;-1.586;2023-02-12T05:53:18;16.90;53.30
53978;DHT22;39886;47.984;-1.586;2023-02-12T05:55:44;17.00;53.30
53978;DHT22;39886;47.984;-1.586;2023-02-12T05:58:10;17.10;53.20
53978;DHT22;39886;47.984;-1.586;2023-02-12T06:00:36;17.10;53.10
53978;DHT22;39886;47.984;-1.586;2023-02-12T06:03:02;17.20;53.00
53978;DHT22;39886;47.984;-1.586;2023-02-12T06:05:28;17.20;52.90
53978;DHT22;39886;47.984;-1.586;2023-02-12T06:07:53;17.30;52.90
53978;DHT22;39886;47.984;-1.586;2023-02-12T06:10:19;17.30;52.80
53978;DHT22;39886;47.984;-1.586;2023-02-12T06:12:45;17.40;52.80
53978;DHT22;39886;47.984;-1.586;2023-02-12T06:15:11;17.40;52.70
53978;DHT22;39886;47.984;-1.586;2023-02-12T06:17:37;17.50;52.70
53978;DHT22;39886;47.984;-1.586;2023-02-12T06:20:03;17.50;52.60
53978;DHT22;39886;47.984;-1.586;2023-02-12T06:22:29;17.60;52.50
53978;DHT22;39886;47.984;-1.586;2023-02-12T06:24:55;17.60;52.50
53978;DHT22;39886;47.984;-1.586;2023-02-12T06:27:20;17.60;52.40
53978;DHT22;39886;47.984;-1.586;2023-02-12T06:29:46;17.70;52.40
53978;DHT22;39886;47.984;-1.586;2023-02-12T06:32:12;17.70;52.40
53978;DHT22;39886;47.984;-1.586;2023-02-12T06:34:39;17.70;52.30
53978;DHT22;39886;47.984;-1.586;2023-02-12T06:37:05;17.80;52.30
53978;DHT22;39886;47.984;-1.586;2023-02-12T06:39:31;17.80;52.20
53978;DHT22;39886;47.984;-1.586;2023-02-12T06:41:56;17.80;52.10
53978;DHT22;39886;47.984;-1.586;2023-02-12T06:44:22;17.90;52.10
53978;DHT22;39886;47.984;-1.586;2023-02-12T06:46:48;17.90;52.00
53978;DHT22;39886;47.984;-1.586;2023-02-12T06:49:14;17.90;51.90
53978;DHT22;39886;47.984;-1.586;2023-02-12T06:51:41;17.90;51.90
53978;DHT22;39886;47.984;-1.586;2023-02-12T06:54:12;17.90;52.00
53978;DHT22;39886;47.984;-1.586;2023-02-12T06:56:38;17.80;52.20
53978;DHT22;39886;47.984;-1.586;2023-02-12T06:59:04;17.70;52.30
53978;DHT22;39886;47.984;-1.586;2023-02-12T07:01:30;17.70;52.50
53978;DHT22;39886;47.984;-1.586;2023-02-12T07:04:00;17.60;52.60
53978;DHT22;39886;47.984;-1.586;2023-02-12T07:06:28;17.60;52.70
53978;DHT22;39886;47.984;-1.586;2023-02-12T07:08:55;17.60;52.80
53978;DHT22;39886;47.984;-1.586;2023-02-12T07:11:25;17.50;52.80
53978;DHT22;39886;47.984;-1.586;2023-02-12T07:13:52;17.40;52.90
53978;DHT22;39886;47.984;-1.586;2023-02-12T07:16:18;17.40;52.90
53978;DHT22;39886;47.984;-1.586;2023-02-12T07:18:44;17.40;53.10
53978;DHT22;39886;47.984;-1.586;2023-02-12T07:21:11;17.30;53.00
53978;DHT22;39886;47.984;-1.586;2023-02-12T07:23:37;17.30;53.10
53978;DHT22;39886;47.984;-1.586;2023-02-12T07:26:06;17.30;53.10
53978;DHT22;39886;47.984;-1.586;2023-02-12T07:28:32;17.20;53.10
53978;DHT22;39886;47.984;-1.586;2023-02-12T07:31:09;17.20;53.10
53978;DHT22;39886;47.984;-1.586;2023-02-12T07:33:36;17.20;53.20
53978;DHT22;39886;47.984;-1.586;2023-02-12T07:36:08;17.20;53.30
53978;DHT22;39886;47.984;-1.586;2023-02-12T07:38:34;17.10;53.20
53978;DHT22;39886;47.984;-1.586;2023-02-12T07:43:33;17.10;53.20
53978;DHT22;39886;47.984;-1.586;2023-02-12T07:46:15;17.20;53.10
53978;DHT22;39886;47.984;-1.586;2023-02-12T07:48:43;17.30;52.90
53978;DHT22;39886;47.984;-1.586;2023-02-12T07:51:13;17.30;52.70
53978;DHT22;39886;47.984;-1.586;2023-02-12T07:53:40;17.40;52.50
53978;DHT22;39886;47.984;-1.586;2023-02-12T07:56:11;17.50;52.40
53978;DHT22;39886;47.984;-1.586;2023-02-12T07:58:38;17.50;52.20
53978;DHT22;39886;47.984;-1.586;2023-02-12T08:03:46;17.70;52.00
53978;DHT22;39886;47.984;-1.586;2023-02-12T08:06:19;17.70;51.90
53978;DHT22;39886;47.984;-1.586;2023-02-12T08:08:46;17.70;51.90
53978;DHT22;39886;47.984;-1.586;2023-02-12T08:11:13;17.80;51.80
53978;DHT22;39886;47.984;-1.586;2023-02-12T08:13:39;17.80;51.70
53978;DHT22;39886;47.984;-1.586;2023-02-12T08:16:08;17.90;51.70
53978;DHT22;39886;47.984;-1.586;2023-02-12T08:18:34;17.90;51.60
53978;DHT22;39886;47.984;-1.586;2023-02-12T08:21:03;18.00;51.50
53978;DHT22;39886;47.984;-1.586;2023-02-12T08:23:30;18.00;51.50
53978;DHT22;39886;47.984;-1.586;2023-02-12T08:26:04;18.00;51.40
53978;DHT22;39886;47.984;-1.586;2023-02-12T08:28:30;18.10;51.40
53978;DHT22;39886;47.984;-1.586;2023-02-12T08:31:06;18.10;51.30
53978;DHT22;39886;47.984;-1.586;2023-02-12T08:33:33;18.10;51.20
53978;DHT22;39886;47.984;-1.586;2023-02-12T08:36:12;18.20;51.20
53978;DHT22;39886;47.984;-1.586;2023-02-12T08:38:39;18.20;51.20
53978;DHT22;39886;47.984;-1.586;2023-02-12T08:41:08;18.10;51.90
53978;DHT22;39886;47.984;-1.586;2023-02-12T08:43:34;18.10;51.50
53978;DHT22;39886;47.984;-1.586;2023-02-12T08:46:05;18.00;51.60
53978;DHT22;39886;47.984;-1.586;2023-02-12T08:48:31;17.90;51.70
53978;DHT22;39886;47.984;-1.586;2023-02-12T08:51:08;17.90;51.90
53978;DHT22;39886;47.984;-1.586;2023-02-12T08:53:35;17.80;51.90
53978;DHT22;39886;47.984;-1.586;2023-02-12T08:56:01;17.80;52.10
53978;DHT22;39886;47.984;-1.586;2023-02-12T08:58:27;17.70;52.10
53978;DHT22;39886;47.984;-1.586;2023-02-12T09:00:53;17.70;52.20
53978;DHT22;39886;47.984;-1.586;2023-02-12T09:03:19;17.60;52.20
53978;DHT22;39886;47.984;-1.586;2023-02-12T09:05:45;17.60;52.40
53978;DHT22;39886;47.984;-1.586;2023-02-12T09:08:10;17.60;52.40
53978;DHT22;39886;47.984;-1.586;2023-02-12T09:10:40;17.50;52.40
53978;DHT22;39886;47.984;-1.586;2023-02-12T09:13:07;17.50;52.40
53978;DHT22;39886;47.984;-1.586;2023-02-12T09:15:42;17.50;52.50
53978;DHT22;39886;47.984;-1.586;2023-02-12T09:18:10;17.50;52.50
53978;DHT22;39886;47.984;-1.586;2023-02-12T09:20:38;17.50;52.60
53978;DHT22;39886;47.984;-1.586;2023-02-12T09:23:11;17.40;52.60
53978;DHT22;39886;47.984;-1.586;2023-02-12T09:25:43;17.40;52.60
53978;DHT22;39886;47.984;-1.586;2023-02-12T09:28:10;17.40;52.60
53978;DHT22;39886;47.984;-1.586;2023-02-12T09:30:37;17.30;52.60
53978;DHT22;39886;47.984;-1.586;2023-02-12T09:33:04;17.30;52.60
53978;DHT22;39886;47.984;-1.586;2023-02-12T09:35:30;17.30;52.60
53978;DHT22;39886;47.984;-1.586;2023-02-12T09:37:58;17.30;52.60
53978;DHT22;39886;47.984;-1.586;2023-02-12T09:40:50;17.30;52.70
53978;DHT22;39886;47.984;-1.586;2023-02-12T09:43:40;17.30;52.70
53978;DHT22;39886;47.984;-1.586;2023-02-12T09:51:29;17.20;52.70
53978;DHT22;39886;47.984;-1.586;2023-02-12T09:54:22;17.20;52.70
53978;DHT22;39886;47.984;-1.586;2023-02-12T09:57:01;17.20;52.80
53978;DHT22;39886;47.984;-1.586;2023-02-12T09:59:43;17.20;52.80
53978;DHT22;39886;47.984;-1.586;2023-02-12T10:02:14;17.20;52.80
53978;DHT22;39886;47.984;-1.586;2023-02-12T10:04:42;17.10;52.80
53978;DHT22;39886;47.984;-1.586;2023-02-12T10:07:35;17.10;52.80
53978;DHT22;39886;47.984;-1.586;2023-02-12T10:10:13;17.10;52.80
53978;DHT22;39886;47.984;-1.586;2023-02-12T10:12:53;17.10;52.80
53978;DHT22;39886;47.984;-1.586;2023-02-12T10:19:03;17.10;52.80
53978;DHT22;39886;47.984;-1.586;2023-02-12T10:26:14;17.10;52.90
53978;DHT22;39886;47.984;-1.586;2023-02-12T10:28:42;17.10;52.80
53978;DHT22;39886;47.984;-1.586;2023-02-12T10:31:26;17.10;52.90
53978;DHT22;39886;47.984;-1.586;2023-02-12T10:33:54;17.10;52.90
53978;DHT22;39886;47.984;-1.586;2023-02-12T10:36:42;17.00;52.80
53978;DHT22;39886;47.984;-1.586;2023-02-12T10:42:08;17.00;52.80
53978;DHT22;39886;47.984;-1.586;2023-02-12T10:44:34;17.00;52.90
53978;DHT22;39886;47.984;-1.586;2023-02-12T10:47:00;17.00;52.90
53978;DHT22;39886;47.984;-1.586;2023-02-12T10:49:29;17.00;52.90
53978;DHT22;39886;47.984;-1.586;2023-02-12T10:54:49;17.00;52.90
53978;DHT22;39886;47.984;-1.586;2023-02-12T10:57:24;17.00;52.90
53978;DHT22;39886;47.984;-1.586;2023-02-12T10:59:53;17.00;52.90
53978;DHT22;39886;47.984;-1.586;2023-02-12T11:02:29;17.00;52.90
53978;DHT22;39886;47.984;-1.586;2023-02-12T11:04:57;17.00;52.90
53978;DHT22;39886;47.984;-1.586;2023-02-12T11:07:24;17.00;52.90
53978;DHT22;39886;47.984;-1.586;2023-02-12T11:09:52;17.00;53.00
53978;DHT22;39886;47.984;-1.586;2023-02-12T11:14:52;16.90;52.90
53978;DHT22;39886;47.984;-1.586;2023-02-12T11:17:25;17.00;52.90
53978;DHT22;39886;47.984;-1.586;2023-02-12T11:20:14;17.00;52.90
53978;DHT22;39886;47.984;-1.586;2023-02-12T11:25:23;17.00;52.90
53978;DHT22;39886;47.984;-1.586;2023-02-12T11:30:57;16.90;52.90
53978;DHT22;39886;47.984;-1.586;2023-02-12T11:33:29;17.00;52.90
53978;DHT22;39886;47.984;-1.586;2023-02-12T11:36:20;17.00;52.90
53978;DHT22;39886;47.984;-1.586;2023-02-12T11:38:57;17.00;52.90
53978;DHT22;39886;47.984;-1.586;2023-02-12T11:41:33;17.00;52.90
53978;DHT22;39886;47.984;-1.586;2023-02-12T11:44:11;17.00;53.00
53978;DHT22;39886;47.984;-1.586;2023-02-12T11:46:38;17.00;53.00
53978;DHT22;39886;47.984;-1.586;2023-02-12T11:49:05;17.00;53.00
53978;DHT22;39886;47.984;-1.586;2023-02-12T11:51:33;16.90;52.90
53978;DHT22;39886;47.984;-1.586;2023-02-12T11:54:02;17.00;53.00
53978;DHT22;39886;47.984;-1.586;2023-02-12T11:56:43;17.00;53.00
53978;DHT22;39886;47.984;-1.586;2023-02-12T11:59:31;17.00;53.00
53978;DHT22;39886;47.984;-1.586;2023-02-12T12:02:07;17.00;53.00
53978;DHT22;39886;47.984;-1.586;2023-02-12T12:04:40;17.00;53.00
53978;DHT22;39886;47.984;-1.586;2023-02-12T12:07:24;17.00;53.00
53978;DHT22;39886;47.984;-1.586;2023-02-12T12:12:43;17.00;53.00
53978;DHT22;39886;47.984;-1.586;2023-02-12T12:15:25;17.00;53.00
53978;DHT22;39886;47.984;-1.586;2023-02-12T12:18:28;17.00;53.00
53978;DHT22;39886;47.984;-1.586;2023-02-12T12:24:28;17.00;52.90
53978;DHT22;39886;47.984;-1.586;2023-02-12T12:27:03;17.10;52.90
53978;DHT22;39886;47.984;-1.586;2023-02-12T12:29:56;17.10;53.00
53978;DHT22;39886;47.984;-1.586;2023-02-12T12:32:24;17.00;52.90
53978;DHT22;39886;47.984;-1.586;2023-02-12T12:34:51;17.10;53.60
53978;DHT22;39886;47.984;-1.586;2023-02-12T12:37:36;17.10;52.90
53978;DHT22;39886;47.984;-1.586;2023-02-12T12:40:09;17.10;52.90
53978;DHT22;39886;47.984;-1.586;2023-02-12T12:45:48;17.10;52.90
53978;DHT22;39886;47.984;-1.586;2023-02-12T12:51:12;17.10;52.80
53978;DHT22;39886;47.984;-1.586;2023-02-12T12:53:50;17.10;52.80
53978;DHT22;39886;47.984;-1.586;2023-02-12T12:59:33;17.10;52.80
53978;DHT22;39886;47.984;-1.586;2023-02-12T13:04:41;17.20;52.80
53978;DHT22;39886;47.984;-1.586;2023-02-12T13:07:32;17.20;52.80
53978;DHT22;39886;47.984;-1.586;2023-02-12T13:13:30;17.20;52.80
53978;DHT22;39886;47.984;-1.586;2023-02-12T13:16:20;17.20;52.70
53978;DHT22;39886;47.984;-1.586;2023-02-12T13:19:08;17.20;52.80
53978;DHT22;39886;47.984;-1.586;2023-02-12T13:21:55;17.20;52.80
53978;DHT22;39886;47.984;-1.586;2023-02-12T13:24:39;17.20;52.70
53978;DHT22;39886;47.984;-1.586;2023-02-12T13:27:17;17.20;52.70
53978;DHT22;39886;47.984;-1.586;2023-02-12T13:32:28;17.30;52.70
53978;DHT22;39886;47.984;-1.586;2023-02-12T13:34:55;17.30;52.70
53978;DHT22;39886;47.984;-1.586;2023-02-12T13:37:37;17.30;52.70
53978;DHT22;39886;47.984;-1.586;2023-02-12T13:40:09;17.30;52.60
53978;DHT22;39886;47.984;-1.586;2023-02-12T13:42:49;17.30;52.60
53978;DHT22;39886;47.984;-1.586;2023-02-12T13:53:18;17.30;52.50
53978;DHT22;39886;47.984;-1.586;2023-02-12T13:58:53;17.30;52.50
53978;DHT22;39886;47.984;-1.586;2023-02-12T14:01:42;17.40;52.50
53978;DHT22;39886;47.984;-1.586;2023-02-12T14:07:00;17.30;52.40
53978;DHT22;39886;47.984;-1.586;2023-02-12T14:09:59;17.30;52.40
53978;DHT22;39886;47.984;-1.586;2023-02-12T14:14:55;17.30;52.40
53978;DHT22;39886;47.984;-1.586;2023-02-12T14:20:04;17.40;52.50
53978;DHT22;39886;47.984;-1.586;2023-02-12T14:24:57;17.40;52.50
53978;DHT22;39886;47.984;-1.586;2023-02-12T14:27:43;17.40;52.40
53978;DHT22;39886;47.984;-1.586;2023-02-12T14:37:59;17.40;52.40
53978;DHT22;39886;47.984;-1.586;2023-02-12T14:43:37;17.50;52.40
53978;DHT22;39886;47.984;-1.586;2023-02-12T14:51:40;17.50;52.30
53978;DHT22;39886;47.984;-1.586;2023-02-12T14:54:44;17.50;52.30
53978;DHT22;39886;47.984;-1.586;2023-02-12T14:59:58;17.50;52.30
53978;DHT22;39886;47.984;-1.586;2023-02-12T15:02:29;17.50;52.90
53978;DHT22;39886;47.984;-1.586;2023-02-12T15:05:00;17.50;52.20
53978;DHT22;39886;47.984;-1.586;2023-02-12T15:07:58;17.50;52.10
53978;DHT22;39886;47.984;-1.586;2023-02-12T15:10:29;17.60;52.20
53978;DHT22;39886;47.984;-1.586;2023-02-12T15:15:44;17.60;52.20
53978;DHT22;39886;47.984;-1.586;2023-02-12T15:18:47;17.60;52.20
53978;DHT22;39886;47.984;-1.586;2023-02-12T15:23:45;17.60;52.10
53978;DHT22;39886;47.984;-1.586;2023-02-12T15:26:18;17.60;52.10
53978;DHT22;39886;47.984;-1.586;2023-02-12T15:28:50;17.60;52.10
53978;DHT22;39886;47.984;-1.586;2023-02-12T15:31:23;17.60;52.10
53978;DHT22;39886;47.984;-1.586;2023-02-12T15:33:51;17.60;52.10
53978;DHT22;39886;47.984;-1.586;2023-02-12T15:36:23;17.60;52.20
53978;DHT22;39886;47.984;-1.586;2023-02-12T15:38:55;17.60;52.10
53978;DHT22;39886;47.984;-1.586;2023-02-12T15:44:16;17.60;52.10
53978;DHT22;39886;47.984;-1.586;2023-02-12T15:47:02;17.60;52.10
53978;DHT22;39886;47.984;-1.586;2023-02-12T15:49:36;17.60;52.20
53978;DHT22;39886;47.984;-1.586;2023-02-12T15:52:18;17.50;52.00
53978;DHT22;39886;47.984;-1.586;2023-02-12T15:54:45;17.50;52.10
53978;DHT22;39886;47.984;-1.586;2023-02-12T15:57:13;17.50;52.10
53978;DHT22;39886;47.984;-1.586;2023-02-12T15:59:49;17.50;52.10
53978;DHT22;39886;47.984;-1.586;2023-02-12T16:02:19;17.50;52.10
53978;DHT22;39886;47.984;-1.586;2023-02-12T16:04:45;17.50;52.10
53978;DHT22;39886;47.984;-1.586;2023-02-12T16:07:11;17.50;52.80
53978;DHT22;39886;47.984;-1.586;2023-02-12T16:09:38;17.50;52.20
53978;DHT22;39886;47.984;-1.586;2023-02-12T16:12:07;17.50;52.20
53978;DHT22;39886;47.984;-1.586;2023-02-12T16:14:49;17.50;52.20
53978;DHT22;39886;47.984;-1.586;2023-02-12T16:17:25;17.50;52.20
53978;DHT22;39886;47.984;-1.586;2023-02-12T16:22:46;17.40;52.20
53978;DHT22;39886;47.984;-1.586;2023-02-12T16:25:22;17.40;52.20
53978;DHT22;39886;47.984;-1.586;2023-02-12T16:28:02;17.40;52.30
53978;DHT22;39886;47.984;-1.586;2023-02-12T16:30:32;17.40;52.30
53978;DHT22;39886;47.984;-1.586;2023-02-12T16:32:59;17.40;52.30
53978;DHT22;39886;47.984;-1.586;2023-02-12T16:35:31;17.40;52.30
53978;DHT22;39886;47.984;-1.586;2023-02-12T16:40:37;17.40;52.30
53978;DHT22;39886;47.984;-1.586;2023-02-12T16:43:20;17.40;52.30
53978;DHT22;39886;47.984;-1.586;2023-02-12T16:45:47;17.30;52.20
53978;DHT22;39886;47.984;-1.586;2023-02-12T16:48:22;17.40;52.40
53978;DHT22;39886;47.984;-1.586;2023-02-12T16:50:55;17.30;52.30
53978;DHT22;39886;47.984;-1.586;2023-02-12T16:53:32;17.30;52.30
53978;DHT22;39886;47.984;-1.586;2023-02-12T16:56:00;17.30;52.40
53978;DHT22;39886;47.984;-1.586;2023-02-12T16:58:26;17.30;52.40
53978;DHT22;39886;47.984;-1.586;2023-02-12T17:00:54;17.30;52.40
53978;DHT22;39886;47.984;-1.586;2023-02-12T17:03:20;17.30;52.50
53978;DHT22;39886;47.984;-1.586;2023-02-12T17:05:46;17.30;52.50
53978;DHT22;39886;47.984;-1.586;2023-02-12T17:08:16;17.30;52.50
53978;DHT22;39886;47.984;-1.586;2023-02-12T17:10:42;17.20;52.50
53978;DHT22;39886;47.984;-1.586;2023-02-12T17:13:12;17.20;52.50
53978;DHT22;39886;47.984;-1.586;2023-02-12T17:15:46;17.20;52.50
53978;DHT22;39886;47.984;-1.586;2023-02-12T17:18:14;17.20;52.60
53978;DHT22;39886;47.984;-1.586;2023-02-12T17:20:39;17.20;52.60
53978;DHT22;39886;47.984;-1.586;2023-02-12T17:23:06;17.20;52.60
53978;DHT22;39886;47.984;-1.586;2023-02-12T17:25:32;17.20;52.60
53978;DHT22;39886;47.984;-1.586;2023-02-12T17:27:59;17.20;52.70
53978;DHT22;39886;47.984;-1.586;2023-02-12T17:30:25;17.10;52.60
53978;DHT22;39886;47.984;-1.586;2023-02-12T17:32:52;17.10;52.60
53978;DHT22;39886;47.984;-1.586;2023-02-12T17:35:18;17.10;52.70
53978;DHT22;39886;47.984;-1.586;2023-02-12T17:37:44;17.10;52.70
53978;DHT22;39886;47.984;-1.586;2023-02-12T17:40:10;17.10;52.70
53978;DHT22;39886;47.984;-1.586;2023-02-12T17:42:37;17.10;52.80
53978;DHT22;39886;47.984;-1.586;2023-02-12T17:45:03;17.10;52.80
53978;DHT22;39886;47.984;-1.586;2023-02-12T17:47:29;17.10;52.80
53978;DHT22;39886;47.984;-1.586;2023-02-12T17:49:56;17.00;52.80
53978;DHT22;39886;47.984;-1.586;2023-02-12T17:52:21;17.00;52.80
53978;DHT22;39886;47.984;-1.586;2023-02-12T17:54:47;17.00;52.80
53978;DHT22;39886;47.984;-1.586;2023-02-12T17:57:13;17.00;52.90
53978;DHT22;39886;47.984;-1.586;2023-02-12T17:59:40;17.00;52.90
53978;DHT22;39886;47.984;-1.586;2023-02-12T18:02:06;17.00;52.90
53978;DHT22;39886;47.984;-1.586;2023-02-12T18:04:33;16.90;52.80
53978;DHT22;39886;47.984;-1.586;2023-02-12T18:07:03;17.00;52.90
53978;DHT22;39886;47.984;-1.586;2023-02-12T18:09:29;17.00;53.00
53978;DHT22;39886;47.984;-1.586;2023-02-12T18:11:54;16.90;52.90